sensor_id;sensor_type;location;lat;lon;timestamp;pressure;altitude;pressure_sealevel;temperature;humidity
9538;BME280;4807;48.024;11.726;2023-09-08T00:01:48;95278.34;;;12.53;96.21
9538;BME280;4807;48.024;11.726;2023-09-08T00:04:56;95281.41;;;12.50;96.34
9538;BME280;4807;48.024;11.726;2023-09-08T00:08:05;95279.56;;;12.57;95.96
9538;BME280;4807;48.024;11.726;2023-09-08T00:11:13;95287.59;;;12.44;96.42
9538;BME280;4807;48.024;11.726;2023-09-08T00:14:22;95296.41;;;12.38;96.70
9538;BME280;4807;48.024;11.726;2023-09-08T00:17:31;95288.59;;;12.37;96.72
9538;BME280;4807;48.024;11.726;2023-09-08T00:20:40;95294.38;;;12.40;96.57
9538;BME280;4807;48.024;11.726;2023-09-08T00:23:49;95284.91;;;12.38;96.77
9538;BME280;4807;48.024;11.726;2023-09-08T00:26:57;95286.94;;;12.29;96.49
9538;BME280;4807;48.024;11.726;2023-09-08T00:30:07;95278.75;;;12.24;96.18
9538;BME280;4807;48.024;11.726;2023-09-08T00:33:17;95285.28;;;12.21;96.05
9538;BME280;4807;48.024;11.726;2023-09-08T00:36:26;95275.84;;;12.19;96.46
9538;BME280;4807;48.024;11.726;2023-09-08T00:39:35;95272.13;;;12.13;96.83
9538;BME280;4807;48.024;11.726;2023-09-08T00:42:43;95264.31;;;12.12;96.75
9538;BME280;4807;48.024;11.726;2023-09-08T00:45:53;95265.16;;;12.12;97.21
9538;BME280;4807;48.024;11.726;2023-09-08T00:49:05;95265.16;;;12.06;96.66
9538;BME280;4807;48.024;11.726;2023-09-08T00:52:16;95272.13;;;12.07;97.49
9538;BME280;4807;48.024;11.726;2023-09-08T00:55:25;95269.66;;;12.05;97.35
9538;BME280;4807;48.024;11.726;2023-09-08T00:58:33;95274.97;;;11.99;97.16
9538;BME280;4807;48.024;11.726;2023-09-08T01:01:42;95268.19;;;11.96;97.19
9538;BME280;4807;48.024;11.726;2023-09-08T01:04:52;95273.09;;;11.93;97.63
9538;BME280;4807;48.024;11.726;2023-09-08T01:08:01;95279.88;;;11.89;97.36
9538;BME280;4807;48.024;11.726;2023-09-08T01:11:10;95278.63;;;11.84;97.67
9538;BME280;4807;48.024;11.726;2023-09-08T01:14:18;95280.69;;;11.82;97.93
9538;BME280;4807;48.024;11.726;2023-09-08T01:17:27;95275.34;;;11.82;98.29
9538;BME280;4807;48.024;11.726;2023-09-08T01:20:58;95273.28;;;11.84;98.72
9538;BME280;4807;48.024;11.726;2023-09-08T01:24:40;95277.41;;;11.87;98.82
9538;BME280;4807;48.024;11.726;2023-09-08T01:27:55;95277.00;;;11.90;97.77
9538;BME280;4807;48.024;11.726;2023-09-08T01:31:06;95269.00;;;11.90;97.20
9538;BME280;4807;48.024;11.726;2023-09-08T01:34:14;95274.53;;;11.89;97.88
9538;BME280;4807;48.024;11.726;2023-09-08T01:37:23;95273.72;;;11.88;97.41
9538;BME280;4807;48.024;11.726;2023-09-08T01:40:31;95272.47;;;11.84;97.19
9538;BME280;4807;48.024;11.726;2023-09-08T01:43:40;95272.06;;;11.80;97.21
9538;BME280;4807;48.024;11.726;2023-09-08T01:46:48;95271.22;;;11.80;97.48
9538;BME280;4807;48.024;11.726;2023-09-08T01:49:58;95276.41;;;12.01;96.81
9538;BME280;4807;48.024;11.726;2023-09-08T01:53:06;95263.03;;;11.81;97.14
9538;BME280;4807;48.024;11.726;2023-09-08T01:56:15;95272.00;;;11.74;97.99
9538;BME280;4807;48.024;11.726;2023-09-08T01:59:24;95270.94;;;11.68;97.39
9538;BME280;4807;48.024;11.726;2023-09-08T02:02:33;95264.38;;;11.64;98.01
9538;BME280;4807;48.024;11.726;2023-09-08T02:05:42;95257.56;;;11.62;97.64
9538;BME280;4807;48.024;11.726;2023-09-08T02:08:50;95254.72;;;11.63;98.31
9538;BME280;4807;48.024;11.726;2023-09-08T02:11:58;95257.00;;;11.66;98.46
9538;BME280;4807;48.024;11.726;2023-09-08T02:15:09;95256.75;;;11.61;98.43
9538;BME280;4807;48.024;11.726;2023-09-08T02:18:18;95254.72;;;11.63;98.45
9538;BME280;4807;48.024;11.726;2023-09-08T02:21:27;95258.03;;;11.65;99.40
9538;BME280;4807;48.024;11.726;2023-09-08T02:24:35;95263.53;;;11.64;98.74
9538;BME280;4807;48.024;11.726;2023-09-08T02:27:45;95256.94;;;11.60;98.93
9538;BME280;4807;48.024;11.726;2023-09-08T02:30:55;95265.38;;;11.63;99.12
9538;BME280;4807;48.024;11.726;2023-09-08T02:34:03;95262.78;;;11.76;98.64
9538;BME280;4807;48.024;11.726;2023-09-08T02:37:12;95260.25;;;11.68;99.01
9538;BME280;4807;48.024;11.726;2023-09-08T02:40:20;95261.31;;;11.67;98.79
9538;BME280;4807;48.024;11.726;2023-09-08T02:43:29;95271.53;;;11.64;99.17
9538;BME280;4807;48.024;11.726;2023-09-08T02:46:39;95274.03;;;11.65;100.00
9538;BME280;4807;48.024;11.726;2023-09-08T02:49:49;95260.44;;;11.60;100.00
9538;BME280;4807;48.024;11.726;2023-09-08T02:52:57;95259.41;;;11.61;100.00
9538;BME280;4807;48.024;11.726;2023-09-08T02:56:05;95251.84;;;11.58;99.48
9538;BME280;4807;48.024;11.726;2023-09-08T02:59:13;95260.22;;;11.55;100.00
9538;BME280;4807;48.024;11.726;2023-09-08T03:02:25;95249.56;;;11.55;100.00
9538;BME280;4807;48.024;11.726;2023-09-08T03:05:34;95254.72;;;11.63;100.00
9538;BME280;4807;48.024;11.726;2023-09-08T03:08:44;95259.66;;;11.66;100.00
9538;BME280;4807;48.024;11.726;2023-09-08T03:11:52;95250.66;;;11.74;99.66
9538;BME280;4807;48.024;11.726;2023-09-08T03:15:01;95257.38;;;11.63;100.00
9538;BME280;4807;48.024;11.726;2023-09-08T03:18:11;95254.09;;;11.61;100.00
9538;BME280;4807;48.024;11.726;2023-09-08T03:21:22;95258.81;;;11.59;100.00
9538;BME280;4807;48.024;11.726;2023-09-08T03:24:31;95255.94;;;11.61;97.95
9538;BME280;4807;48.024;11.726;2023-09-08T03:27:40;95259.25;;;11.69;93.73
9538;BME280;4807;48.024;11.726;2023-09-08T03:30:48;95256.72;;;11.48;94.17
9538;BME280;4807;48.024;11.726;2023-09-08T03:33:58;95257.44;;;11.29;95.30
9538;BME280;4807;48.024;11.726;2023-09-08T03:37:07;95254.94;;;11.21;95.84
9538;BME280;4807;48.024;11.726;2023-09-08T03:40:16;95260.34;;;11.34;96.99
9538;BME280;4807;48.024;11.726;2023-09-08T03:43:24;95251.13;;;11.36;92.62
9538;BME280;4807;48.024;11.726;2023-09-08T03:46:33;95252.84;;;11.09;92.08
9538;BME280;4807;48.024;11.726;2023-09-08T03:49:43;95244.44;;;10.78;94.20
9538;BME280;4807;48.024;11.726;2023-09-08T03:52:52;95252.78;;;10.68;95.52
9538;BME280;4807;48.024;11.726;2023-09-08T03:56:00;95258.00;;;10.83;97.27
9538;BME280;4807;48.024;11.726;2023-09-08T03:59:09;95254.28;;;11.12;95.70
9538;BME280;4807;48.024;11.726;2023-09-08T04:02:17;95252.13;;;10.94;95.16
9538;BME280;4807;48.024;11.726;2023-09-08T04:05:27;95253.88;;;10.81;96.67
9538;BME280;4807;48.024;11.726;2023-09-08T04:08:36;95255.28;;;10.77;96.64
9538;BME280;4807;48.024;11.726;2023-09-08T04:11:44;95253.56;;;10.97;94.70
9538;BME280;4807;48.024;11.726;2023-09-08T04:14:52;95258.16;;;10.75;96.17
9538;BME280;4807;48.024;11.726;2023-09-08T04:18:01;95258.25;;;10.60;97.47
9538;BME280;4807;48.024;11.726;2023-09-08T04:21:12;95260.47;;;10.57;98.19
9538;BME280;4807;48.024;11.726;2023-09-08T04:24:21;95262.47;;;10.55;98.32
9538;BME280;4807;48.024;11.726;2023-09-08T04:27:29;95261.75;;;10.61;98.60
9538;BME280;4807;48.024;11.726;2023-09-08T04:30:37;95256.00;;;10.64;98.31
9538;BME280;4807;48.024;11.726;2023-09-08T04:33:46;95255.81;;;10.65;99.28
9538;BME280;4807;48.024;11.726;2023-09-08T04:36:55;95257.66;;;10.65;99.50
9538;BME280;4807;48.024;11.726;2023-09-08T04:40:05;95258.94;;;10.69;99.78
9538;BME280;4807;48.024;11.726;2023-09-08T04:43:14;95258.38;;;10.80;100.00
9538;BME280;4807;48.024;11.726;2023-09-08T04:46:22;95257.22;;;10.89;99.93
9538;BME280;4807;48.024;11.726;2023-09-08T04:49:32;95256.38;;;11.17;98.00
9538;BME280;4807;48.024;11.726;2023-09-08T04:52:42;95264.34;;;11.17;98.70
9538;BME280;4807;48.024;11.726;2023-09-08T04:55:51;95264.34;;;11.17;97.58
9538;BME280;4807;48.024;11.726;2023-09-08T04:58:59;95274.19;;;11.16;98.22
9538;BME280;4807;48.024;11.726;2023-09-08T05:02:09;95276.66;;;11.18;97.84
9538;BME280;4807;48.024;11.726;2023-09-08T05:05:19;95272.16;;;11.18;98.59
9538;BME280;4807;48.024;11.726;2023-09-08T05:08:32;95275.91;;;11.30;97.49
9538;BME280;4807;48.024;11.726;2023-09-08T05:11:42;95278.94;;;11.27;98.33
9538;BME280;4807;48.024;11.726;2023-09-08T05:14:51;95272.22;;;11.31;98.05
9538;BME280;4807;48.024;11.726;2023-09-08T05:18:04;95277.25;;;11.54;98.08
9538;BME280;4807;48.024;11.726;2023-09-08T05:21:13;95270.25;;;11.46;97.83
9538;BME280;4807;48.024;11.726;2023-09-08T05:24:24;95276.00;;;11.50;98.37
9538;BME280;4807;48.024;11.726;2023-09-08T05:27:34;95280.38;;;11.64;98.19
9538;BME280;4807;48.024;11.726;2023-09-08T05:30:43;95281.59;;;11.68;97.65
9538;BME280;4807;48.024;11.726;2023-09-08T05:33:51;95287.63;;;11.77;98.34
9538;BME280;4807;48.024;11.726;2023-09-08T05:37:00;95286.84;;;11.83;98.34
9538;BME280;4807;48.024;11.726;2023-09-08T05:40:11;95282.75;;;11.94;97.14
9538;BME280;4807;48.024;11.726;2023-09-08T05:43:20;95286.06;;;12.09;96.88
9538;BME280;4807;48.024;11.726;2023-09-08T05:46:29;95288.16;;;12.20;97.66
9538;BME280;4807;48.024;11.726;2023-09-08T05:49:39;95291.91;;;12.32;97.33
9538;BME280;4807;48.024;11.726;2023-09-08T05:52:47;95288.63;;;12.56;95.93
9538;BME280;4807;48.024;11.726;2023-09-08T05:55:57;95300.56;;;12.80;96.00
9538;BME280;4807;48.024;11.726;2023-09-08T05:59:06;95298.47;;;13.28;94.90
9538;BME280;4807;48.024;11.726;2023-09-08T06:02:15;95297.19;;;14.02;93.11
9538;BME280;4807;48.024;11.726;2023-09-08T06:05:23;95301.03;;;14.57;91.46
9538;BME280;4807;48.024;11.726;2023-09-08T06:08:32;95293.69;;;14.71;89.93
9538;BME280;4807;48.024;11.726;2023-09-08T06:11:43;95293.97;;;14.87;88.84
9538;BME280;4807;48.024;11.726;2023-09-08T06:14:51;95306.13;;;15.76;85.18
9538;BME280;4807;48.024;11.726;2023-09-08T06:18:00;95295.03;;;16.51;82.81
9538;BME280;4807;48.024;11.726;2023-09-08T06:21:09;95289.09;;;16.90;79.42
9538;BME280;4807;48.024;11.726;2023-09-08T06:24:19;95290.97;;;17.01;78.13
9538;BME280;4807;48.024;11.726;2023-09-08T06:27:30;95298.19;;;16.89;78.63
9538;BME280;4807;48.024;11.726;2023-09-08T06:30:39;95307.88;;;16.67;79.79
9538;BME280;4807;48.024;11.726;2023-09-08T06:33:50;95295.34;;;16.61;80.64
9538;BME280;4807;48.024;11.726;2023-09-08T06:37:00;95301.44;;;16.68;81.78
9538;BME280;4807;48.024;11.726;2023-09-08T06:40:09;95296.59;;;17.81;77.83
9538;BME280;4807;48.024;11.726;2023-09-08T06:43:19;95300.88;;;19.58;73.46
9538;BME280;4807;48.024;11.726;2023-09-08T06:46:36;95301.91;;;21.46;66.81
9538;BME280;4807;48.024;11.726;2023-09-08T06:49:45;95298.84;;;23.09;58.90
9538;BME280;4807;48.024;11.726;2023-09-08T06:52:54;95299.94;;;23.74;56.80
9538;BME280;4807;48.024;11.726;2023-09-08T06:56:03;95301.03;;;23.17;59.53
9538;BME280;4807;48.024;11.726;2023-09-08T06:59:14;95304.22;;;22.79;60.30
9538;BME280;4807;48.024;11.726;2023-09-08T07:02:24;95306.25;;;25.03;54.11
9538;BME280;4807;48.024;11.726;2023-09-08T07:05:33;95300.84;;;25.32;53.57
9538;BME280;4807;48.024;11.726;2023-09-08T07:08:42;95300.22;;;25.40;52.31
9538;BME280;4807;48.024;11.726;2023-09-08T07:11:51;95298.03;;;26.29;50.91
9538;BME280;4807;48.024;11.726;2023-09-08T07:15:06;95304.47;;;26.62;49.69
9538;BME280;4807;48.024;11.726;2023-09-08T07:18:15;95303.13;;;27.02;48.83
9538;BME280;4807;48.024;11.726;2023-09-08T07:21:24;95298.56;;;25.11;53.59
9538;BME280;4807;48.024;11.726;2023-09-08T07:24:33;95306.34;;;24.83;53.90
9538;BME280;4807;48.024;11.726;2023-09-08T07:27:42;95289.59;;;23.46;59.99
9538;BME280;4807;48.024;11.726;2023-09-08T07:30:53;95299.03;;;24.04;57.86
9538;BME280;4807;48.024;11.726;2023-09-08T07:34:02;95296.28;;;22.72;62.37
9538;BME280;4807;48.024;11.726;2023-09-08T07:37:10;95293.19;;;22.33;64.98
9538;BME280;4807;48.024;11.726;2023-09-08T07:40:19;95297.03;;;22.42;64.71
9538;BME280;4807;48.024;11.726;2023-09-08T07:43:29;95300.19;;;23.37;62.03
9538;BME280;4807;48.024;11.726;2023-09-08T07:46:40;95302.66;;;23.49;61.25
9538;BME280;4807;48.024;11.726;2023-09-08T07:49:48;95298.97;;;22.52;64.26
9538;BME280;4807;48.024;11.726;2023-09-08T07:52:57;95296.84;;;21.97;65.82
9538;BME280;4807;48.024;11.726;2023-09-08T07:56:05;95294.00;;;21.82;67.74
9538;BME280;4807;48.024;11.726;2023-09-08T07:59:14;95300.16;;;22.09;67.04
9538;BME280;4807;48.024;11.726;2023-09-08T08:02:24;95306.44;;;22.20;66.09
9538;BME280;4807;48.024;11.726;2023-09-08T08:05:33;95307.97;;;22.00;66.88
9538;BME280;4807;48.024;11.726;2023-09-08T08:08:42;95305.38;;;21.37;69.35
9538;BME280;4807;48.024;11.726;2023-09-08T08:11:51;95312.88;;;21.66;69.65
9538;BME280;4807;48.024;11.726;2023-09-08T08:15:00;95316.38;;;21.25;69.34
9538;BME280;4807;48.024;11.726;2023-09-08T08:18:10;95316.34;;;21.20;69.98
9538;BME280;4807;48.024;11.726;2023-09-08T08:21:18;95310.22;;;21.72;70.46
9538;BME280;4807;48.024;11.726;2023-09-08T08:24:27;95308.66;;;22.28;66.48
9538;BME280;4807;48.024;11.726;2023-09-08T08:27:35;95308.22;;;22.71;65.93
9538;BME280;4807;48.024;11.726;2023-09-08T08:30:47;95304.59;;;22.35;66.41
9538;BME280;4807;48.024;11.726;2023-09-08T08:33:57;95303.16;;;22.13;66.80
9538;BME280;4807;48.024;11.726;2023-09-08T08:37:06;95299.50;;;22.49;67.15
9538;BME280;4807;48.024;11.726;2023-09-08T08:40:14;95303.97;;;22.86;65.95
9538;BME280;4807;48.024;11.726;2023-09-08T08:43:24;95300.44;;;22.85;66.16
9538;BME280;4807;48.024;11.726;2023-09-08T08:46:34;95295.03;;;23.41;64.30
9538;BME280;4807;48.024;11.726;2023-09-08T08:49:48;95301.53;;;23.90;63.30
9538;BME280;4807;48.024;11.726;2023-09-08T08:52:56;95302.09;;;23.82;61.32
9538;BME280;4807;48.024;11.726;2023-09-08T08:56:07;95300.28;;;24.42;60.71
9538;BME280;4807;48.024;11.726;2023-09-08T08:59:16;95297.69;;;24.07;61.15
9538;BME280;4807;48.024;11.726;2023-09-08T09:02:28;95306.66;;;23.92;63.61
9538;BME280;4807;48.024;11.726;2023-09-08T09:05:38;95306.44;;;23.83;63.49
9538;BME280;4807;48.024;11.726;2023-09-08T09:08:50;95299.38;;;23.16;64.64
9538;BME280;4807;48.024;11.726;2023-09-08T09:11:58;95293.97;;;23.27;64.18
9538;BME280;4807;48.024;11.726;2023-09-08T09:15:07;95292.88;;;23.33;64.64
9538;BME280;4807;48.024;11.726;2023-09-08T09:18:16;95290.66;;;23.80;63.82
9538;BME280;4807;48.024;11.726;2023-09-08T09:21:43;95288.00;;;23.50;63.11
9538;BME280;4807;48.024;11.726;2023-09-08T09:24:57;95280.28;;;23.92;63.21
9538;BME280;4807;48.024;11.726;2023-09-08T09:28:06;95285.25;;;23.75;62.87
9538;BME280;4807;48.024;11.726;2023-09-08T09:31:14;95288.44;;;23.98;63.14
9538;BME280;4807;48.024;11.726;2023-09-08T09:34:23;95281.28;;;24.17;61.58
9538;BME280;4807;48.024;11.726;2023-09-08T09:37:33;95285.16;;;24.06;62.03
9538;BME280;4807;48.024;11.726;2023-09-08T09:40:43;95276.44;;;24.24;61.50
9538;BME280;4807;48.024;11.726;2023-09-08T09:43:53;95279.69;;;24.75;60.40
9538;BME280;4807;48.024;11.726;2023-09-08T09:47:01;95272.94;;;24.67;60.22
9538;BME280;4807;48.024;11.726;2023-09-08T09:50:10;95274.47;;;24.84;59.96
9538;BME280;4807;48.024;11.726;2023-09-08T09:53:22;95272.69;;;25.13;61.33
9538;BME280;4807;48.024;11.726;2023-09-08T09:56:31;95268.78;;;25.53;58.93
9538;BME280;4807;48.024;11.726;2023-09-08T09:59:41;95268.72;;;25.87;57.34
9538;BME280;4807;48.024;11.726;2023-09-08T10:02:50;95265.53;;;25.17;57.83
9538;BME280;4807;48.024;11.726;2023-09-08T10:05:59;95263.75;;;25.36;58.87
9538;BME280;4807;48.024;11.726;2023-09-08T10:09:09;95262.00;;;25.79;58.34
9538;BME280;4807;48.024;11.726;2023-09-08T10:12:21;95261.00;;;25.70;58.00
9538;BME280;4807;48.024;11.726;2023-09-08T10:15:31;95257.63;;;25.78;59.47
9538;BME280;4807;48.024;11.726;2023-09-08T10:18:47;95245.19;;;25.96;57.40
9538;BME280;4807;48.024;11.726;2023-09-08T10:22:03;95253.63;;;25.08;59.91
9538;BME280;4807;48.024;11.726;2023-09-08T10:25:18;95249.53;;;25.39;59.44
9538;BME280;4807;48.024;11.726;2023-09-08T10:28:29;95244.97;;;25.64;59.55
9538;BME280;4807;48.024;11.726;2023-09-08T10:31:39;95242.34;;;25.82;57.65
9538;BME280;4807;48.024;11.726;2023-09-08T10:34:49;95246.38;;;25.56;59.36
9538;BME280;4807;48.024;11.726;2023-09-08T10:38:22;95240.84;;;25.37;59.60
9538;BME280;4807;48.024;11.726;2023-09-08T10:41:33;95250.13;;;25.36;59.32
9538;BME280;4807;48.024;11.726;2023-09-08T10:44:42;95246.56;;;25.70;60.41
9538;BME280;4807;48.024;11.726;2023-09-08T10:47:56;95241.63;;;25.72;58.75
9538;BME280;4807;48.024;11.726;2023-09-08T10:51:05;95245.81;;;25.30;59.47
9538;BME280;4807;48.024;11.726;2023-09-08T10:54:42;95246.88;;;25.63;59.38
9538;BME280;4807;48.024;11.726;2023-09-08T10:58:04;95239.03;;;25.57;58.18
9538;BME280;4807;48.024;11.726;2023-09-08T11:01:17;95233.06;;;25.83;58.49
9538;BME280;4807;48.024;11.726;2023-09-08T11:04:27;95229.84;;;25.76;59.46
9538;BME280;4807;48.024;11.726;2023-09-08T11:07:36;95225.97;;;26.06;58.49
9538;BME280;4807;48.024;11.726;2023-09-08T11:10:45;95231.75;;;26.23;56.86
9538;BME280;4807;48.024;11.726;2023-09-08T11:13:55;95232.25;;;26.31;57.02
9538;BME280;4807;48.024;11.726;2023-09-08T11:17:08;95228.50;;;26.64;57.55
9538;BME280;4807;48.024;11.726;2023-09-08T11:20:16;95231.44;;;26.68;56.03
9538;BME280;4807;48.024;11.726;2023-09-08T11:23:25;95242.59;;;26.71;55.48
9538;BME280;4807;48.024;11.726;2023-09-08T11:26:34;95232.94;;;26.17;55.46
9538;BME280;4807;48.024;11.726;2023-09-08T11:29:44;95231.47;;;26.49;55.86
9538;BME280;4807;48.024;11.726;2023-09-08T11:32:53;95237.13;;;26.34;56.19
9538;BME280;4807;48.024;11.726;2023-09-08T11:36:02;95236.09;;;26.48;57.54
9538;BME280;4807;48.024;11.726;2023-09-08T11:39:10;95235.66;;;26.60;55.49
9538;BME280;4807;48.024;11.726;2023-09-08T11:42:20;95228.50;;;26.21;56.75
9538;BME280;4807;48.024;11.726;2023-09-08T11:45:31;95232.00;;;26.27;55.11
9538;BME280;4807;48.024;11.726;2023-09-08T11:48:42;95231.81;;;26.61;55.24
9538;BME280;4807;48.024;11.726;2023-09-08T11:51:50;95233.75;;;26.79;54.97
9538;BME280;4807;48.024;11.726;2023-09-08T11:54:59;95230.44;;;26.82;56.10
9538;BME280;4807;48.024;11.726;2023-09-08T11:58:14;95229.31;;;27.02;55.88
9538;BME280;4807;48.024;11.726;2023-09-08T12:01:25;95222.75;;;27.03;52.89
9538;BME280;4807;48.024;11.726;2023-09-08T12:04:35;95223.81;;;27.07;53.57
9538;BME280;4807;48.024;11.726;2023-09-08T12:07:44;95225.50;;;27.03;53.13
9538;BME280;4807;48.024;11.726;2023-09-08T12:10:54;95211.44;;;27.10;54.31
9538;BME280;4807;48.024;11.726;2023-09-08T12:14:07;95220.94;;;27.31;55.01
9538;BME280;4807;48.024;11.726;2023-09-08T12:17:16;95223.88;;;26.83;54.79
9538;BME280;4807;48.024;11.726;2023-09-08T12:20:25;95221.56;;;26.53;55.16
9538;BME280;4807;48.024;11.726;2023-09-08T12:23:34;95223.47;;;26.52;53.21
9538;BME280;4807;48.024;11.726;2023-09-08T12:26:42;95227.31;;;26.70;54.95
9538;BME280;4807;48.024;11.726;2023-09-08T12:29:55;95221.63;;;26.85;54.75
9538;BME280;4807;48.024;11.726;2023-09-08T12:33:07;95211.16;;;26.55;52.83
9538;BME280;4807;48.024;11.726;2023-09-08T12:36:18;95216.03;;;26.58;52.86
9538;BME280;4807;48.024;11.726;2023-09-08T12:39:27;95218.25;;;26.56;52.75
9538;BME280;4807;48.024;11.726;2023-09-08T12:42:35;95219.13;;;26.89;53.18
9538;BME280;4807;48.024;11.726;2023-09-08T12:45:53;95214.84;;;27.02;52.43
9538;BME280;4807;48.024;11.726;2023-09-08T12:49:03;95219.00;;;26.80;51.75
9538;BME280;4807;48.024;11.726;2023-09-08T12:52:14;95212.22;;;26.96;51.64
9538;BME280;4807;48.024;11.726;2023-09-08T12:55:23;95205.22;;;26.90;51.29
9538;BME280;4807;48.024;11.726;2023-09-08T12:58:31;95209.47;;;27.15;52.15
9538;BME280;4807;48.024;11.726;2023-09-08T13:01:41;95207.53;;;27.16;50.93
9538;BME280;4807;48.024;11.726;2023-09-08T13:04:51;95210.44;;;27.06;50.60
9538;BME280;4807;48.024;11.726;2023-09-08T13:07:59;95214.31;;;27.18;50.86
9538;BME280;4807;48.024;11.726;2023-09-08T13:11:08;95210.13;;;27.07;51.01
9538;BME280;4807;48.024;11.726;2023-09-08T13:14:16;95212.91;;;27.21;51.85
9538;BME280;4807;48.024;11.726;2023-09-08T13:17:24;95206.47;;;27.30;50.82
9538;BME280;4807;48.024;11.726;2023-09-08T13:20:34;95213.56;;;27.31;51.43
9538;BME280;4807;48.024;11.726;2023-09-08T13:23:43;95207.88;;;27.28;49.40
9538;BME280;4807;48.024;11.726;2023-09-08T13:26:51;95205.47;;;27.40;49.95
9538;BME280;4807;48.024;11.726;2023-09-08T13:30:09;95205.38;;;27.45;49.32
9538;BME280;4807;48.024;11.726;2023-09-08T13:33:18;95200.13;;;27.16;49.29
9538;BME280;4807;48.024;11.726;2023-09-08T13:36:27;95196.75;;;27.38;50.30
9538;BME280;4807;48.024;11.726;2023-09-08T13:39:36;95198.19;;;27.49;49.21
9538;BME280;4807;48.024;11.726;2023-09-08T13:42:44;95190.19;;;27.53;48.94
9538;BME280;4807;48.024;11.726;2023-09-08T13:45:53;95186.34;;;27.40;48.68
9538;BME280;4807;48.024;11.726;2023-09-08T13:49:01;95187.13;;;27.41;49.83
9538;BME280;4807;48.024;11.726;2023-09-08T13:52:12;95175.59;;;27.44;49.00
9538;BME280;4807;48.024;11.726;2023-09-08T13:55:25;95175.16;;;27.55;49.39
9538;BME280;4807;48.024;11.726;2023-09-08T13:58:36;95174.25;;;27.41;49.27
9538;BME280;4807;48.024;11.726;2023-09-08T14:01:56;95183.16;;;27.33;51.01
9538;BME280;4807;48.024;11.726;2023-09-08T14:05:11;95178.03;;;27.45;49.59
9538;BME280;4807;48.024;11.726;2023-09-08T14:08:27;95177.09;;;27.36;49.60
9538;BME280;4807;48.024;11.726;2023-09-08T14:11:49;95180.34;;;27.38;50.80
9538;BME280;4807;48.024;11.726;2023-09-08T14:15:05;95171.53;;;27.09;50.32
9538;BME280;4807;48.024;11.726;2023-09-08T14:18:13;95167.91;;;27.00;49.41
9538;BME280;4807;48.024;11.726;2023-09-08T14:21:22;95162.88;;;27.20;51.32
9538;BME280;4807;48.024;11.726;2023-09-08T14:24:36;95163.34;;;27.09;49.85
9538;BME280;4807;48.024;11.726;2023-09-08T14:27:44;95163.53;;;26.99;49.69
9538;BME280;4807;48.024;11.726;2023-09-08T14:30:53;95170.31;;;27.01;50.53
9538;BME280;4807;48.024;11.726;2023-09-08T14:34:03;95163.56;;;27.12;51.13
9538;BME280;4807;48.024;11.726;2023-09-08T14:37:12;95161.69;;;27.26;51.43
9538;BME280;4807;48.024;11.726;2023-09-08T14:40:23;95170.91;;;27.30;51.32
9538;BME280;4807;48.024;11.726;2023-09-08T14:43:32;95163.69;;;27.21;50.33
9538;BME280;4807;48.024;11.726;2023-09-08T14:46:40;95163.69;;;27.21;50.32
9538;BME280;4807;48.024;11.726;2023-09-08T14:49:49;95169.59;;;27.28;50.14
9538;BME280;4807;48.024;11.726;2023-09-08T14:52:57;95166.38;;;27.40;50.62
9538;BME280;4807;48.024;11.726;2023-09-08T14:56:07;95167.38;;;27.44;49.96
9538;BME280;4807;48.024;11.726;2023-09-08T14:59:16;95169.41;;;27.38;48.77
9538;BME280;4807;48.024;11.726;2023-09-08T15:02:25;95157.66;;;27.24;49.36
9538;BME280;4807;48.024;11.726;2023-09-08T15:05:35;95168.25;;;27.25;49.74
9538;BME280;4807;48.024;11.726;2023-09-08T15:08:44;95164.91;;;27.15;50.17
9538;BME280;4807;48.024;11.726;2023-09-08T15:11:55;95159.63;;;27.18;50.21
9538;BME280;4807;48.024;11.726;2023-09-08T15:15:06;95170.09;;;27.30;49.82
9538;BME280;4807;48.024;11.726;2023-09-08T15:18:17;95171.81;;;27.26;50.20
9538;BME280;4807;48.024;11.726;2023-09-08T15:21:30;95165.09;;;27.18;49.34
9538;BME280;4807;48.024;11.726;2023-09-08T15:24:40;95159.03;;;27.08;50.13
9538;BME280;4807;48.024;11.726;2023-09-08T15:27:50;95160.81;;;26.99;50.78
9538;BME280;4807;48.024;11.726;2023-09-08T15:31:00;95157.75;;;27.00;50.35
9538;BME280;4807;48.024;11.726;2023-09-08T15:34:09;95158.91;;;26.99;51.05
9538;BME280;4807;48.024;11.726;2023-09-08T15:37:19;95167.69;;;26.96;50.54
9538;BME280;4807;48.024;11.726;2023-09-08T15:40:27;95165.22;;;26.94;50.50
9538;BME280;4807;48.024;11.726;2023-09-08T15:43:39;95177.91;;;26.85;51.32
9538;BME280;4807;48.024;11.726;2023-09-08T15:46:49;95166.69;;;26.87;50.46
9538;BME280;4807;48.024;11.726;2023-09-08T15:49:57;95159.09;;;26.84;50.41
9538;BME280;4807;48.024;11.726;2023-09-08T15:53:09;95159.19;;;26.79;50.61
9538;BME280;4807;48.024;11.726;2023-09-08T15:56:18;95165.16;;;26.81;51.50
9538;BME280;4807;48.024;11.726;2023-09-08T15:59:28;95161.09;;;26.78;51.02
9538;BME280;4807;48.024;11.726;2023-09-08T16:02:36;95160.44;;;26.68;53.77
9538;BME280;4807;48.024;11.726;2023-09-08T16:05:45;95155.06;;;26.44;56.07
9538;BME280;4807;48.024;11.726;2023-09-08T16:08:55;95150.91;;;26.28;57.59
9538;BME280;4807;48.024;11.726;2023-09-08T16:12:04;95156.28;;;26.14;57.39
9538;BME280;4807;48.024;11.726;2023-09-08T16:15:14;95154.50;;;26.04;57.74
9538;BME280;4807;48.024;11.726;2023-09-08T16:18:23;95156.03;;;25.92;58.35
9538;BME280;4807;48.024;11.726;2023-09-08T16:21:31;95156.88;;;25.87;58.66
9538;BME280;4807;48.024;11.726;2023-09-08T16:24:40;95153.78;;;25.75;59.74
9538;BME280;4807;48.024;11.726;2023-09-08T16:27:48;95159.66;;;25.58;59.59
9538;BME280;4807;48.024;11.726;2023-09-08T16:31:03;95158.94;;;25.47;59.75
9538;BME280;4807;48.024;11.726;2023-09-08T16:34:12;95162.31;;;25.39;59.78
9538;BME280;4807;48.024;11.726;2023-09-08T16:37:21;95168.97;;;25.28;60.75
9538;BME280;4807;48.024;11.726;2023-09-08T16:40:29;95161.72;;;25.19;61.11
9538;BME280;4807;48.024;11.726;2023-09-08T16:43:37;95164.59;;;25.03;61.49
9538;BME280;4807;48.024;11.726;2023-09-08T16:46:47;95164.91;;;24.97;61.57
9538;BME280;4807;48.024;11.726;2023-09-08T16:49:55;95165.53;;;24.84;62.07
9538;BME280;4807;48.024;11.726;2023-09-08T16:53:04;95165.03;;;24.77;62.93
9538;BME280;4807;48.024;11.726;2023-09-08T16:56:12;95159.16;;;24.64;63.84
9538;BME280;4807;48.024;11.726;2023-09-08T16:59:21;95166.00;;;24.57;63.99